sensor_id;sensor_type;location;lat;lon;timestamp;pressure;altitude;pressure_sealevel;temperature;humidity
24234;BME280;12365;43.554;1.388;2023-02-19T00:00:59;101085.78;;;11.45;56.00
24234;BME280;12365;43.554;1.388;2023-02-19T00:03:26;101090.69;;;11.40;56.24
24234;BME280;12365;43.554;1.388;2023-02-19T00:05:51;101091.41;;;11.38;56.19
24234;BME280;12365;43.554;1.388;2023-02-19T00:08:17;101094.59;;;11.34;56.29
24234;BME280;12365;43.554;1.388;2023-02-19T00:10:42;101092.81;;;11.33;56.35
24234;BME280;12365;43.554;1.388;2023-02-19T00:13:07;101104.66;;;11.27;56.35
24234;BME280;12365;43.554;1.388;2023-02-19T00:15:33;101093.09;;;11.24;56.58
24234;BME280;12365;43.554;1.388;2023-02-19T00:17:58;101083.47;;;11.23;56.57
24234;BME280;12365;43.554;1.388;2023-02-19T00:20:24;101090.28;;;11.21;56.55
24234;BME280;12365;43.554;1.388;2023-02-19T00:22:49;101085.88;;;11.20;56.52
24234;BME280;12365;43.554;1.388;2023-02-19T00:25:15;101083.16;;;11.18;56.52
24234;BME280;12365;43.554;1.388;2023-02-19T00:27:40;101083.97;;;11.17;56.53
24234;BME280;12365;43.554;1.388;2023-02-19T00:30:06;101083.75;;;11.14;56.80
24234;BME280;12365;43.554;1.388;2023-02-19T00:32:32;101085.38;;;11.12;56.64
24234;BME280;12365;43.554;1.388;2023-02-19T00:34:57;101094.78;;;11.10;56.71
24234;BME280;12365;43.554;1.388;2023-02-19T00:37:22;101095.38;;;11.06;56.43
24234;BME280;12365;43.554;1.388;2023-02-19T00:39:48;101095.09;;;11.01;56.63
24234;BME280;12365;43.554;1.388;2023-02-19T00:42:13;101087.72;;;10.96;56.55
24234;BME280;12365;43.554;1.388;2023-02-19T00:44:39;101077.91;;;10.92;56.51
24234;BME280;12365;43.554;1.388;2023-02-19T00:47:04;101074.84;;;10.85;56.59
24234;BME280;12365;43.554;1.388;2023-02-19T00:49:30;101067.63;;;10.81;56.80
24234;BME280;12365;43.554;1.388;2023-02-19T00:51:55;101077.38;;;10.84;56.62
24234;BME280;12365;43.554;1.388;2023-02-19T00:54:20;101071.16;;;10.82;57.00
24234;BME280;12365;43.554;1.388;2023-02-19T00:56:49;101065.50;;;10.76;56.70
24234;BME280;12365;43.554;1.388;2023-02-19T00:59:15;101075.03;;;10.75;57.00
24234;BME280;12365;43.554;1.388;2023-02-19T01:01:41;101072.03;;;10.69;57.02
24234;BME280;12365;43.554;1.388;2023-02-19T01:04:08;101071.81;;;10.66;57.08
24234;BME280;12365;43.554;1.388;2023-02-19T01:06:34;101077.03;;;10.66;56.87
24234;BME280;12365;43.554;1.388;2023-02-19T01:08:59;101076.03;;;10.64;57.25
24234;BME280;12365;43.554;1.388;2023-02-19T01:11:25;101068.06;;;10.62;56.95
24234;BME280;12365;43.554;1.388;2023-02-19T01:13:51;101075.81;;;10.61;56.98
24234;BME280;12365;43.554;1.388;2023-02-19T01:16:21;101074.00;;;10.60;57.04
24234;BME280;12365;43.554;1.388;2023-02-19T01:18:52;101074.81;;;10.59;57.11
24234;BME280;12365;43.554;1.388;2023-02-19T01:21:20;101078.88;;;10.55;57.33
24234;BME280;12365;43.554;1.388;2023-02-19T01:23:46;101082.19;;;10.53;57.26
24234;BME280;12365;43.554;1.388;2023-02-19T01:26:14;101083.00;;;10.52;57.41
24234;BME280;12365;43.554;1.388;2023-02-19T01:28:41;101086.44;;;10.51;57.25
24234;BME280;12365;43.554;1.388;2023-02-19T01:31:09;101083.81;;;10.51;57.53
24234;BME280;12365;43.554;1.388;2023-02-19T01:33:35;101082.78;;;10.49;57.13
24234;BME280;12365;43.554;1.388;2023-02-19T01:36:05;101080.06;;;10.47;57.35
24234;BME280;12365;43.554;1.388;2023-02-19T01:38:31;101077.03;;;10.41;57.26
24234;BME280;12365;43.554;1.388;2023-02-19T01:41:01;101085.56;;;10.38;57.46
24234;BME280;12365;43.554;1.388;2023-02-19T01:43:27;101083.66;;;10.36;57.63
24234;BME280;12365;43.554;1.388;2023-02-19T01:45:53;101084.22;;;10.32;57.31
24234;BME280;12365;43.554;1.388;2023-02-19T01:48:26;101078.63;;;10.27;57.50
24234;BME280;12365;43.554;1.388;2023-02-19T01:50:57;101076.41;;;10.20;57.45
24234;BME280;12365;43.554;1.388;2023-02-19T01:53:28;101079.59;;;10.16;57.42
24234;BME280;12365;43.554;1.388;2023-02-19T01:55:57;101080.28;;;10.13;57.70
24234;BME280;12365;43.554;1.388;2023-02-19T01:58:25;101080.97;;;10.11;57.34
24234;BME280;12365;43.554;1.388;2023-02-19T02:00:52;101078.03;;;10.06;57.54
24234;BME280;12365;43.554;1.388;2023-02-19T02:03:18;101083.94;;;10.04;57.67
24234;BME280;12365;43.554;1.388;2023-02-19T02:08:19;101069.22;;;9.92;57.44
24234;BME280;12365;43.554;1.388;2023-02-19T02:11:03;101070.25;;;9.94;57.94
24234;BME280;12365;43.554;1.388;2023-02-19T02:13:32;101075.38;;;9.93;57.65
24234;BME280;12365;43.554;1.388;2023-02-19T02:18:44;101075.25;;;9.91;57.47
24234;BME280;12365;43.554;1.388;2023-02-19T02:26:57;101067.00;;;9.85;57.76
24234;BME280;12365;43.554;1.388;2023-02-19T02:29:53;101073.69;;;9.82;57.63
24234;BME280;12365;43.554;1.388;2023-02-19T02:32:26;101066.47;;;9.77;57.68
24234;BME280;12365;43.554;1.388;2023-02-19T02:34:58;101065.31;;;9.74;57.88
24234;BME280;12365;43.554;1.388;2023-02-19T02:37:27;101070.31;;;9.71;57.81
24234;BME280;12365;43.554;1.388;2023-02-19T02:39:56;101063.84;;;9.66;57.58
24234;BME280;12365;43.554;1.388;2023-02-19T02:42:22;101065.44;;;9.64;57.93
24234;BME280;12365;43.554;1.388;2023-02-19T02:44:57;101057.19;;;9.58;57.63
24234;BME280;12365;43.554;1.388;2023-02-19T02:47:52;101052.75;;;9.57;57.78
24234;BME280;12365;43.554;1.388;2023-02-19T02:50:23;101055.28;;;9.55;57.80
24234;BME280;12365;43.554;1.388;2023-02-19T02:52:53;101053.34;;;9.52;57.73
24234;BME280;12365;43.554;1.388;2023-02-19T02:55:42;101045.06;;;9.46;57.79
24234;BME280;12365;43.554;1.388;2023-02-19T02:58:09;101049.16;;;9.43;57.99
24234;BME280;12365;43.554;1.388;2023-02-19T03:00:36;101050.63;;;9.39;58.01
24234;BME280;12365;43.554;1.388;2023-02-19T03:03:23;101051.22;;;9.35;58.21
24234;BME280;12365;43.554;1.388;2023-02-19T03:05:55;101050.19;;;9.33;58.19
24234;BME280;12365;43.554;1.388;2023-02-19T03:08:27;101048.38;;;9.32;58.03
24234;BME280;12365;43.554;1.388;2023-02-19T03:11:13;101047.38;;;9.30;58.05
24234;BME280;12365;43.554;1.388;2023-02-19T03:14:11;101047.16;;;9.27;58.06
24234;BME280;12365;43.554;1.388;2023-02-19T03:17:05;101045.31;;;9.26;58.06
24234;BME280;12365;43.554;1.388;2023-02-19T03:19:55;101041.69;;;9.24;58.05
24234;BME280;12365;43.554;1.388;2023-02-19T03:22:28;101043.59;;;9.26;58.08
24234;BME280;12365;43.554;1.388;2023-02-19T03:25:00;101043.53;;;9.25;58.29
24234;BME280;12365;43.554;1.388;2023-02-19T03:27:48;101032.88;;;9.22;58.35
24234;BME280;12365;43.554;1.388;2023-02-19T03:30:24;101037.84;;;9.19;58.20
24234;BME280;12365;43.554;1.388;2023-02-19T03:33:02;101047.00;;;9.14;58.22
24234;BME280;12365;43.554;1.388;2023-02-19T03:35:35;101042.38;;;9.09;58.35
24234;BME280;12365;43.554;1.388;2023-02-19T03:41:01;101046.09;;;9.01;58.33
24234;BME280;12365;43.554;1.388;2023-02-19T03:43:51;101051.31;;;9.01;58.31
24234;BME280;12365;43.554;1.388;2023-02-19T03:46:44;101054.72;;;9.00;58.49
24234;BME280;12365;43.554;1.388;2023-02-19T03:52:13;101051.09;;;8.98;58.37
24234;BME280;12365;43.554;1.388;2023-02-19T03:57:20;101042.81;;;8.92;58.03
24234;BME280;12365;43.554;1.388;2023-02-19T04:00:03;101047.00;;;8.90;58.50
24234;BME280;12365;43.554;1.388;2023-02-19T04:02:40;101047.81;;;8.89;58.24
24234;BME280;12365;43.554;1.388;2023-02-19T04:05:20;101044.94;;;8.86;58.44
24234;BME280;12365;43.554;1.388;2023-02-19T04:07:49;101045.63;;;8.83;58.41
24234;BME280;12365;43.554;1.388;2023-02-19T04:10:18;101047.47;;;8.84;58.47
24234;BME280;12365;43.554;1.388;2023-02-19T04:12:52;101052.31;;;8.80;58.53
24234;BME280;12365;43.554;1.388;2023-02-19T04:15:23;101052.31;;;8.80;58.38
24234;BME280;12365;43.554;1.388;2023-02-19T04:17:59;101049.34;;;8.75;58.39
24234;BME280;12365;43.554;1.388;2023-02-19T04:20:28;101038.94;;;8.63;58.63
24234;BME280;12365;43.554;1.388;2023-02-19T04:22:56;101048.91;;;8.69;58.53
24234;BME280;12365;43.554;1.388;2023-02-19T04:25:23;101054.78;;;8.66;58.23
24234;BME280;12365;43.554;1.388;2023-02-19T04:27:50;101060.53;;;8.62;58.53
24234;BME280;12365;43.554;1.388;2023-02-19T04:30:16;101054.28;;;8.60;58.43
24234;BME280;12365;43.554;1.388;2023-02-19T04:32:41;101059.28;;;8.57;58.47
24234;BME280;12365;43.554;1.388;2023-02-19T04:35:07;101057.22;;;8.53;58.62
24234;BME280;12365;43.554;1.388;2023-02-19T04:37:32;101056.22;;;8.51;58.67
24234;BME280;12365;43.554;1.388;2023-02-19T04:39:58;101055.84;;;8.46;58.64
24234;BME280;12365;43.554;1.388;2023-02-19T04:42:23;101068.97;;;8.48;58.73
24234;BME280;12365;43.554;1.388;2023-02-19T04:44:48;101061.97;;;8.47;58.69
24234;BME280;12365;43.554;1.388;2023-02-19T04:47:14;101062.75;;;8.46;58.65
24234;BME280;12365;43.554;1.388;2023-02-19T04:49:42;101057.19;;;8.41;58.56
24234;BME280;12365;43.554;1.388;2023-02-19T04:52:07;101065.09;;;8.43;58.71
24234;BME280;12365;43.554;1.388;2023-02-19T04:54:33;101063.28;;;8.42;58.76
24234;BME280;12365;43.554;1.388;2023-02-19T04:56:58;101064.19;;;8.42;58.97
24234;BME280;12365;43.554;1.388;2023-02-19T04:59:24;101068.50;;;8.42;58.78
24234;BME280;12365;43.554;1.388;2023-02-19T05:01:49;101068.00;;;8.36;58.90
24234;BME280;12365;43.554;1.388;2023-02-19T05:04:14;101075.81;;;8.36;58.67
24234;BME280;12365;43.554;1.388;2023-02-19T05:06:40;101076.34;;;8.32;58.61
24234;BME280;12365;43.554;1.388;2023-02-19T05:09:05;101080.41;;;8.28;58.78
24234;BME280;12365;43.554;1.388;2023-02-19T05:11:30;101075.88;;;8.25;58.85
24234;BME280;12365;43.554;1.388;2023-02-19T05:13:56;101082.66;;;8.23;58.75
24234;BME280;12365;43.554;1.388;2023-02-19T05:16:21;101080.81;;;8.22;58.88
24234;BME280;12365;43.554;1.388;2023-02-19T05:18:47;101088.50;;;8.21;58.93
24234;BME280;12365;43.554;1.388;2023-02-19T05:21:13;101089.41;;;8.21;58.83
24234;BME280;12365;43.554;1.388;2023-02-19T05:23:39;101092.81;;;8.20;58.80
24234;BME280;12365;43.554;1.388;2023-02-19T05:26:11;101088.38;;;8.19;58.86
24234;BME280;12365;43.554;1.388;2023-02-19T05:28:38;101090.97;;;8.19;58.86
24234;BME280;12365;43.554;1.388;2023-02-19T05:31:06;101089.72;;;8.14;58.71
24234;BME280;12365;43.554;1.388;2023-02-19T05:33:32;101087.78;;;8.12;58.71
24234;BME280;12365;43.554;1.388;2023-02-19T05:35:58;101086.63;;;8.08;58.75
24234;BME280;12365;43.554;1.388;2023-02-19T05:38:23;101092.59;;;8.07;58.97
24234;BME280;12365;43.554;1.388;2023-02-19T05:40:49;101091.03;;;8.09;59.00
24234;BME280;12365;43.554;1.388;2023-02-19T05:43:15;101088.22;;;8.06;58.88
24234;BME280;12365;43.554;1.388;2023-02-19T05:45:41;101087.41;;;8.07;58.88
24234;BME280;12365;43.554;1.388;2023-02-19T05:48:07;101092.50;;;8.06;58.95
24234;BME280;12365;43.554;1.388;2023-02-19T05:50:34;101098.59;;;8.06;58.94
24234;BME280;12365;43.554;1.388;2023-02-19T05:53:01;101092.38;;;8.04;58.97
24234;BME280;12365;43.554;1.388;2023-02-19T05:55:27;101092.91;;;8.00;58.96
24234;BME280;12365;43.554;1.388;2023-02-19T05:57:53;101088.56;;;7.89;58.74
24234;BME280;12365;43.554;1.388;2023-02-19T06:00:19;101091.69;;;7.85;59.13
24234;BME280;12365;43.554;1.388;2023-02-19T06:02:46;101092.47;;;7.84;58.94
24234;BME280;12365;43.554;1.388;2023-02-19T06:05:12;101097.69;;;7.84;59.13
24234;BME280;12365;43.554;1.388;2023-02-19T06:07:38;101098.47;;;7.82;59.20
24234;BME280;12365;43.554;1.388;2023-02-19T06:10:08;101105.47;;;7.84;59.23
24234;BME280;12365;43.554;1.388;2023-02-19T06:12:33;101096.88;;;7.85;58.90
24234;BME280;12365;43.554;1.388;2023-02-19T06:14:58;101094.19;;;7.83;59.12
24234;BME280;12365;43.554;1.388;2023-02-19T06:17:24;101097.53;;;7.82;59.01
24234;BME280;12365;43.554;1.388;2023-02-19T06:19:49;101100.78;;;7.79;59.21
24234;BME280;12365;43.554;1.388;2023-02-19T06:22:15;101100.69;;;7.78;59.14
24234;BME280;12365;43.554;1.388;2023-02-19T06:24:41;101101.59;;;7.78;59.04
24234;BME280;12365;43.554;1.388;2023-02-19T06:27:07;101100.47;;;7.75;59.03
24234;BME280;12365;43.554;1.388;2023-02-19T06:29:33;101096.69;;;7.71;58.99
24234;BME280;12365;43.554;1.388;2023-02-19T06:31:58;101105.28;;;7.70;59.15
24234;BME280;12365;43.554;1.388;2023-02-19T06:34:24;101112.03;;;7.68;59.06
24234;BME280;12365;43.554;1.388;2023-02-19T06:36:50;101109.97;;;7.64;58.95
24234;BME280;12365;43.554;1.388;2023-02-19T06:39:15;101108.16;;;7.63;59.10
24234;BME280;12365;43.554;1.388;2023-02-19T06:41:41;101115.03;;;7.63;59.17
24234;BME280;12365;43.554;1.388;2023-02-19T06:44:06;101118.41;;;7.62;59.12
24234;BME280;12365;43.554;1.388;2023-02-19T06:46:32;101117.38;;;7.59;59.22
24234;BME280;12365;43.554;1.388;2023-02-19T06:48:58;101118.81;;;7.56;59.24
24234;BME280;12365;43.554;1.388;2023-02-19T06:51:24;101118.16;;;7.58;59.26
24234;BME280;12365;43.554;1.388;2023-02-19T06:53:52;101113.63;;;7.56;59.13
24234;BME280;12365;43.554;1.388;2023-02-19T06:56:27;101125.81;;;7.57;59.26
24234;BME280;12365;43.554;1.388;2023-02-19T06:58:54;101131.94;;;7.57;59.40
24234;BME280;12365;43.554;1.388;2023-02-19T07:01:20;101122.47;;;7.58;59.35
24234;BME280;12365;43.554;1.388;2023-02-19T07:03:46;101129.22;;;7.56;59.16
24234;BME280;12365;43.554;1.388;2023-02-19T07:06:11;101123.34;;;7.58;59.22
24234;BME280;12365;43.554;1.388;2023-02-19T07:08:37;101128.94;;;7.63;59.37
24234;BME280;12365;43.554;1.388;2023-02-19T07:11:02;101131.91;;;7.68;59.22
24234;BME280;12365;43.554;1.388;2023-02-19T07:13:28;101142.69;;;7.72;59.18
24234;BME280;12365;43.554;1.388;2023-02-19T07:15:58;101150.16;;;7.79;59.18
24234;BME280;12365;43.554;1.388;2023-02-19T07:18:24;101144.81;;;7.88;58.96
24234;BME280;12365;43.554;1.388;2023-02-19T07:20:49;101152.72;;;7.90;58.94
24234;BME280;12365;43.554;1.388;2023-02-19T07:23:15;101163.63;;;7.96;59.00
24234;BME280;12365;43.554;1.388;2023-02-19T07:25:40;101153.69;;;8.02;58.90
24234;BME280;12365;43.554;1.388;2023-02-19T07:28:06;101163.38;;;8.15;58.88
24234;BME280;12365;43.554;1.388;2023-02-19T07:30:31;101162.66;;;8.28;58.83
24234;BME280;12365;43.554;1.388;2023-02-19T07:32:57;101170.41;;;8.38;59.02
24234;BME280;12365;43.554;1.388;2023-02-19T07:35:22;101174.03;;;8.50;58.89
24234;BME280;12365;43.554;1.388;2023-02-19T07:37:48;101167.19;;;8.62;59.03
24234;BME280;12365;43.554;1.388;2023-02-19T07:40:13;101173.34;;;8.75;58.81
24234;BME280;12365;43.554;1.388;2023-02-19T07:42:39;101174.53;;;8.90;58.84
24234;BME280;12365;43.554;1.388;2023-02-19T07:45:04;101179.09;;;9.04;58.54
24234;BME280;12365;43.554;1.388;2023-02-19T07:47:30;101187.28;;;9.21;58.57
24234;BME280;12365;43.554;1.388;2023-02-19T07:49:55;101188.44;;;9.36;58.51
24234;BME280;12365;43.554;1.388;2023-02-19T07:52:21;101181.91;;;9.53;58.48
24234;BME280;12365;43.554;1.388;2023-02-19T07:54:46;101185.66;;;9.68;58.21
24234;BME280;12365;43.554;1.388;2023-02-19T07:57:11;101175.31;;;9.82;57.97
24234;BME280;12365;43.554;1.388;2023-02-19T07:59:37;101188.38;;;9.93;57.90
24234;BME280;12365;43.554;1.388;2023-02-19T08:02:03;101186.53;;;10.04;57.62
24234;BME280;12365;43.554;1.388;2023-02-19T08:04:47;101186.53;;;10.16;57.59
24234;BME280;12365;43.554;1.388;2023-02-19T08:07:12;101187.53;;;10.30;57.70
24234;BME280;12365;43.554;1.388;2023-02-19T08:09:38;101192.94;;;10.45;57.56
24234;BME280;12365;43.554;1.388;2023-02-19T08:12:03;101192.94;;;10.56;57.67
24234;BME280;12365;43.554;1.388;2023-02-19T08:14:47;101203.53;;;10.71;57.13
24234;BME280;12365;43.554;1.388;2023-02-19T08:17:12;101202.69;;;10.84;57.09
24234;BME280;12365;43.554;1.388;2023-02-19T08:19:38;101211.69;;;11.01;57.22
24234;BME280;12365;43.554;1.388;2023-02-19T08:22:03;101206.72;;;11.17;56.84
24234;BME280;12365;43.554;1.388;2023-02-19T08:24:29;101208.69;;;11.33;56.83
24234;BME280;12365;43.554;1.388;2023-02-19T08:26:55;101210.41;;;11.46;56.65
24234;BME280;12365;43.554;1.388;2023-02-19T08:29:20;101207.41;;;11.53;56.61
24234;BME280;12365;43.554;1.388;2023-02-19T08:31:46;101208.50;;;11.57;56.38
24234;BME280;12365;43.554;1.388;2023-02-19T08:34:12;101212.25;;;11.60;56.43
24234;BME280;12365;43.554;1.388;2023-02-19T08:36:37;101210.16;;;11.68;56.30
24234;BME280;12365;43.554;1.388;2023-02-19T08:39:03;101211.03;;;11.82;56.31
24234;BME280;12365;43.554;1.388;2023-02-19T08:41:28;101215.53;;;11.96;56.09
24234;BME280;12365;43.554;1.388;2023-02-19T08:43:53;101205.88;;;12.08;56.14
24234;BME280;12365;43.554;1.388;2023-02-19T08:46:19;101203.75;;;12.16;55.90
24234;BME280;12365;43.554;1.388;2023-02-19T08:48:44;101209.78;;;12.28;55.73
24234;BME280;12365;43.554;1.388;2023-02-19T08:51:10;101210.44;;;12.39;55.55
24234;BME280;12365;43.554;1.388;2023-02-19T08:53:37;101216.88;;;12.44;55.53
24234;BME280;12365;43.554;1.388;2023-02-19T08:58:31;101212.41;;;12.56;55.25
24234;BME280;12365;43.554;1.388;2023-02-19T09:00:57;101214.81;;;12.67;55.25
24234;BME280;12365;43.554;1.388;2023-02-19T09:03:22;101215.59;;;12.79;55.25
24234;BME280;12365;43.554;1.388;2023-02-19T09:05:48;101216.13;;;12.88;55.09
24234;BME280;12365;43.554;1.388;2023-02-19T09:08:13;101216.88;;;13.00;54.77
24234;BME280;12365;43.554;1.388;2023-02-19T09:10:40;101213.13;;;13.10;54.73
24234;BME280;12365;43.554;1.388;2023-02-19T09:13:05;101217.03;;;13.17;54.71
24234;BME280;12365;43.554;1.388;2023-02-19T09:15:31;101214.25;;;13.29;54.62
24234;BME280;12365;43.554;1.388;2023-02-19T09:17:57;101224.59;;;13.40;54.55
24234;BME280;12365;43.554;1.388;2023-02-19T09:20:23;101218.25;;;13.52;54.42
24234;BME280;12365;43.554;1.388;2023-02-19T09:22:48;101228.41;;;13.60;54.29
24234;BME280;12365;43.554;1.388;2023-02-19T09:25:13;101228.03;;;13.69;54.03
24234;BME280;12365;43.554;1.388;2023-02-19T09:27:39;101227.13;;;13.83;54.08
24234;BME280;12365;43.554;1.388;2023-02-19T09:30:05;101247.19;;;13.98;53.76
24234;BME280;12365;43.554;1.388;2023-02-19T09:32:30;101246.09;;;14.09;53.82
24234;BME280;12365;43.554;1.388;2023-02-19T09:34:56;101248.53;;;14.21;53.59
24234;BME280;12365;43.554;1.388;2023-02-19T09:37:27;101246.03;;;14.39;53.60
24234;BME280;12365;43.554;1.388;2023-02-19T09:39:53;101252.19;;;14.54;53.26
24234;BME280;12365;43.554;1.388;2023-02-19T09:42:21;101255.66;;;14.69;53.27
24234;BME280;12365;43.554;1.388;2023-02-19T09:44:51;101255.50;;;14.83;53.00
24234;BME280;12365;43.554;1.388;2023-02-19T09:47:20;101261.41;;;14.95;52.88
24234;BME280;12365;43.554;1.388;2023-02-19T09:49:48;101259.63;;;15.10;52.58
24234;BME280;12365;43.554;1.388;2023-02-19T09:54:58;101252.34;;;15.39;52.29
24234;BME280;12365;43.554;1.388;2023-02-19T09:57:27;101246.84;;;15.51;52.26
24234;BME280;12365;43.554;1.388;2023-02-19T10:02:32;101255.28;;;15.78;52.04
24234;BME280;12365;43.554;1.388;2023-02-19T10:04:58;101247.03;;;15.88;51.83
24234;BME280;12365;43.554;1.388;2023-02-19T10:07:27;101245.81;;;15.99;51.83
24234;BME280;12365;43.554;1.388;2023-02-19T10:10:17;101248.22;;;16.13;51.62
24234;BME280;12365;43.554;1.388;2023-02-19T10:12:47;101253.06;;;16.21;51.41
24234;BME280;12365;43.554;1.388;2023-02-19T10:15:37;101255.22;;;16.30;51.40
24234;BME280;12365;43.554;1.388;2023-02-19T10:18:03;101253.03;;;16.39;51.12
24234;BME280;12365;43.554;1.388;2023-02-19T10:20:30;101258.75;;;16.49;51.07
24234;BME280;12365;43.554;1.388;2023-02-19T10:23:04;101261.91;;;16.59;50.88
24234;BME280;12365;43.554;1.388;2023-02-19T10:25:32;101261.41;;;16.68;50.69
24234;BME280;12365;43.554;1.388;2023-02-19T10:27:58;101263.88;;;16.81;50.64
24234;BME280;12365;43.554;1.388;2023-02-19T10:30:28;101254.03;;;16.97;50.41
24234;BME280;12365;43.554;1.388;2023-02-19T10:33:01;101255.94;;;17.01;50.39
24234;BME280;12365;43.554;1.388;2023-02-19T10:35:27;101246.50;;;17.06;50.17
24234;BME280;12365;43.554;1.388;2023-02-19T10:37:53;101252.56;;;17.23;50.19
24234;BME280;12365;43.554;1.388;2023-02-19T10:40:21;101245.44;;;17.41;49.95
24234;BME280;12365;43.554;1.388;2023-02-19T10:42:49;101242.59;;;17.56;49.82
24234;BME280;12365;43.554;1.388;2023-02-19T10:45:39;101248.59;;;17.73;49.66
24234;BME280;12365;43.554;1.388;2023-02-19T10:48:24;101252.69;;;17.86;49.59
24234;BME280;12365;43.554;1.388;2023-02-19T10:50:58;101241.78;;;17.99;49.53
24234;BME280;12365;43.554;1.388;2023-02-19T10:53:44;101243.41;;;18.16;49.39
24234;BME280;12365;43.554;1.388;2023-02-19T10:56:25;101240.50;;;18.33;49.09
24234;BME280;12365;43.554;1.388;2023-02-19T10:58:50;101248.72;;;18.39;48.96
24234;BME280;12365;43.554;1.388;2023-02-19T11:04:12;101239.34;;;18.47;48.86
24234;BME280;12365;43.554;1.388;2023-02-19T11:06:38;101241.28;;;18.51;48.75
24234;BME280;12365;43.554;1.388;2023-02-19T11:09:04;101244.91;;;18.55;48.65
24234;BME280;12365;43.554;1.388;2023-02-19T11:11:37;101252.19;;;18.60;48.75
24234;BME280;12365;43.554;1.388;2023-02-19T11:14:15;101248.28;;;18.73;48.32
24234;BME280;12365;43.554;1.388;2023-02-19T11:16:47;101243.31;;;18.81;48.24
24234;BME280;12365;43.554;1.388;2023-02-19T11:19:38;101237.41;;;18.88;48.40
24234;BME280;12365;43.554;1.388;2023-02-19T11:22:30;101236.19;;;19.02;48.36
24234;BME280;12365;43.554;1.388;2023-02-19T11:25:21;101232.59;;;19.00;47.99
24234;BME280;12365;43.554;1.388;2023-02-19T11:28:05;101234.53;;;19.04;48.18
24234;BME280;12365;43.554;1.388;2023-02-19T11:35:40;101221.53;;;19.36;47.69
24234;BME280;12365;43.554;1.388;2023-02-19T11:38:09;101219.94;;;19.41;47.73
24234;BME280;12365;43.554;1.388;2023-02-19T11:40:53;101220.97;;;19.45;47.49
24234;BME280;12365;43.554;1.388;2023-02-19T11:43:31;101207.94;;;19.51;47.40
24234;BME280;12365;43.554;1.388;2023-02-19T11:46:13;101203.97;;;19.64;47.22
24234;BME280;12365;43.554;1.388;2023-02-19T11:51:58;101193.38;;;19.64;46.98
24234;BME280;12365;43.554;1.388;2023-02-19T11:54:51;101199.63;;;19.66;47.10
24234;BME280;12365;43.554;1.388;2023-02-19T11:57:44;101182.84;;;19.65;47.27
24234;BME280;12365;43.554;1.388;2023-02-19T12:00:23;101192.69;;;19.68;47.08
24234;BME280;12365;43.554;1.388;2023-02-19T12:03:47;101184.75;;;19.69;47.09
24234;BME280;12365;43.554;1.388;2023-02-19T12:09:13;101171.69;;;19.74;47.24
24234;BME280;12365;43.554;1.388;2023-02-19T12:45:19;101105.94;;;20.48;46.79
24234;BME280;12365;43.554;1.388;2023-02-19T12:48:07;101102.88;;;20.63;46.34
24234;BME280;12365;43.554;1.388;2023-02-19T12:50:38;101100.97;;;20.58;46.58
24234;BME280;12365;43.554;1.388;2023-02-19T12:53:22;101091.16;;;20.55;46.23
24234;BME280;12365;43.554;1.388;2023-02-19T12:55:50;101087.91;;;20.65;46.60
24234;BME280;12365;43.554;1.388;2023-02-19T12:58:26;101096.97;;;20.73;46.55
24234;BME280;12365;43.554;1.388;2023-02-19T13:00:54;101088.13;;;20.73;46.43
24234;BME280;12365;43.554;1.388;2023-02-19T13:03:29;101071.25;;;20.71;46.36
24234;BME280;12365;43.554;1.388;2023-02-19T13:06:03;101076.56;;;20.69;46.13
24234;BME280;12365;43.554;1.388;2023-02-19T13:08:35;101065.00;;;20.67;46.37
24234;BME280;12365;43.554;1.388;2023-02-19T13:11:09;101059.75;;;20.70;46.23
24234;BME280;12365;43.554;1.388;2023-02-19T13:13:45;101059.94;;;20.76;46.38
24234;BME280;12365;43.554;1.388;2023-02-19T13:16:15;101047.72;;;20.82;46.15
24234;BME280;12365;43.554;1.388;2023-02-19T13:18:45;101051.28;;;20.84;46.37
24234;BME280;12365;43.554;1.388;2023-02-19T13:21:17;101044.94;;;20.78;46.16
24234;BME280;12365;43.554;1.388;2023-02-19T13:24:09;101033.25;;;20.70;45.98
24234;BME280;12365;43.554;1.388;2023-02-19T13:32:38;101022.97;;;20.83;45.95
24234;BME280;12365;43.554;1.388;2023-02-19T13:35:25;101020.16;;;20.76;46.26
24234;BME280;12365;43.554;1.388;2023-02-19T13:37:53;101013.97;;;20.77;46.38
24234;BME280;12365;43.554;1.388;2023-02-19T13:40:33;101015.63;;;20.72;46.12
24234;BME280;12365;43.554;1.388;2023-02-19T13:43:01;101006.63;;;20.67;46.04
24234;BME280;12365;43.554;1.388;2023-02-19T13:45:34;101008.41;;;20.68;46.02
24234;BME280;12365;43.554;1.388;2023-02-19T13:58:57;100998.00;;;20.74;45.95
24234;BME280;12365;43.554;1.388;2023-02-19T14:30:53;100971.81;;;20.55;46.44
24234;BME280;12365;43.554;1.388;2023-02-19T14:33:26;100968.94;;;20.47;46.28
24234;BME280;12365;43.554;1.388;2023-02-19T14:35:57;100966.13;;;20.41;46.27
24234;BME280;12365;43.554;1.388;2023-02-19T14:38:31;100973.75;;;20.30;46.54
24234;BME280;12365;43.554;1.388;2023-02-19T14:40:58;100967.16;;;20.14;46.45
24234;BME280;12365;43.554;1.388;2023-02-19T14:43:25;100969.41;;;20.01;46.84
24234;BME280;12365;43.554;1.388;2023-02-19T14:45:56;100956.66;;;19.87;46.75
24234;BME280;12365;43.554;1.388;2023-02-19T14:48:29;100960.00;;;19.80;47.22
24234;BME280;12365;43.554;1.388;2023-02-19T14:51:02;100955.38;;;19.75;47.05
24234;BME280;12365;43.554;1.388;2023-02-19T14:53:28;100953.47;;;19.69;47.31
24234;BME280;12365;43.554;1.388;2023-02-19T14:55:56;100948.16;;;19.69;47.31
24234;BME280;12365;43.554;1.388;2023-02-19T14:58:32;100946.47;;;19.71;47.20
24234;BME280;12365;43.554;1.388;2023-02-19T15:00:58;100949.97;;;19.70;47.61
24234;BME280;12365;43.554;1.388;2023-02-19T15:03:31;100948.22;;;19.70;47.28
24234;BME280;12365;43.554;1.388;2023-02-19T15:06:03;100946.47;;;19.71;47.30
24234;BME280;12365;43.554;1.388;2023-02-19T15:08:33;100944.78;;;19.73;47.42
24234;BME280;12365;43.554;1.388;2023-02-19T15:11:01;100941.34;;;19.77;47.58